Phoenix, Arizona
Traffic Map
Current Weather Conditions
Phoenix, Arizona
Few Clouds
Few Clouds
106°
Feels Like: 106°
Wind Chill: 106° Ceiling: Unl
Heat Index: 106° Visibility: 10mi
Dew Point: 40° Wind: 3mph
Humidity: 11% Direction: 340° (NNW)
Pressure: 29.68in Gusts: 0mph
Raw Report DataKPHX 022351Z 34003KT 10SM FEW250 41/04 A2968 RMK AO2 SLP027 T04110044 10428 20372 56026
Traffic Incident Summary
Active as of:
Severity:
Category:
InformationThere was an issue retrieving the traffic information for this location. Please try a different location or try again shortly.
Advertisements
Track Severe Weather on mobile